Latest Weather Observations for Lismore Airport

IDN60801

Issued at 5:32 am EDT Monday 20 February 2017 (issued every 30 minutes, with the page automatically refreshed every 10 minutes)

About weather observations | Map of weather stations | Latest weather observations for NSW | Other Formats
Station Details ID: 058214 Name: LISMORE AIRPORT AWS Lat: -28.83 Lon: 153.26 Height: 9.21 m
Data from the previous 72 hours. | See also: Recent months at Lismore Airport
Date/Time
EDT
Temp
°C
App
Temp
°C
Dew
Point
°C
Rel
Hum
%
Delta-T
°C
Wind Press
QNH
hPa
Press
MSL
hPa
Rain since
9am
mm
Dir  Spd
km/h
Gust
km/h
Spd
kts
Gust
kts
20/05:30am 19.9 23.0 18.7 93 0.8 CALM 0 0 0 0 1008.2 1008.2 10.2
20/05:00am 20.1 23.3 18.9 93 0.8 CALM 0 0 0 0 1007.5 1007.5 10.2
20/04:30am 20.2 23.2 19.2 94 0.6 ESE 2 9 1 5 1007.2 1007.2 10.2
20/04:00am 20.2 23.5 19.0 93 0.8 CALM 0 0 0 0 1007.2 1007.2 10.2
20/03:30am 20.5 23.0 19.0 91 0.9 SW 4 7 2 4 1007.5 1007.5 10.2
20/03:00am 20.5 22.5 19.2 92 0.8 WNW 7 11 4 6 1006.8 1006.8 10.2
20/02:30am 20.5 21.5 19.5 94 0.6 NNW 13 15 7 8 1006.8 1006.8 10.2
20/02:00am 20.5 21.5 19.5 94 0.6 NNW 13 15 7 8 1007.8 1007.8 10.2
20/01:30am 20.4 21.4 19.4 94 0.6 NNW 13 17 7 9 1008.6 1008.6 10.0
20/01:00am 20.4 21.6 19.1 92 0.8 N 11 17 6 9 1009.2 1009.2 9.4
20/12:30am 20.8 22.4 19.1 90 1.1 NNW 9 13 5 7 1010.0 1010.0 8.8
20/12:00am 20.8 21.7 19.3 91 0.9 NW 13 20 7 11 1010.3 1010.3 7.6
 
Date/Time
EDT
Temp
°C
App
Temp
°C
Dew
Point
°C
Rel
Hum
%
Delta-T
°C
Wind Press
QNH
hPa
Press
MSL
hPa
Rain since
9am
mm
Dir  Spd
km/h
Gust
km/h
Spd
kts
Gust
kts
19/11:30pm 21.6 21.4 18.6 83 1.9 W 17 30 9 16 1009.8 1009.8 3.4
19/11:00pm 22.6 23.4 19.8 84 1.8 NW 15 22 8 12 1009.6 1009.6 2.6
19/10:30pm 22.4 26.4 20.5 89 1.2 CALM 0 0 0 0 1009.3 1009.3 2.2
19/10:00pm 22.3 25.1 20.8 91 1.0 NNE 7 7 4 4 1009.0 1009.0 2.0
19/09:30pm 22.6 25.5 20.7 89 1.2 NNW 6 7 3 4 1008.5 1008.5 1.4
19/09:00pm 22.4 24.3 20.5 89 1.2 N 11 13 6 7 1007.5 1007.5 1.2
19/08:30pm 22.6 23.7 20.5 88 1.4 NNW 15 17 8 9 1006.9 1006.9 1.2
19/08:00pm 23.1 24.0 20.1 83 1.9 N 15 19 8 10 1006.7 1006.7 1.2
19/07:30pm 22.9 24.2 20.8 88 1.4 NNE 15 19 8 10 1006.2 1006.2 1.2
19/07:00pm 23.0 25.0 20.7 87 1.5 NNW 11 17 6 9 1006.0 1006.0 1.2
19/06:30pm 23.4 25.7 21.3 88 1.4 N 11 15 6 8 1005.6 1005.6 1.2
19/06:00pm 23.8 26.3 21.7 88 1.4 N 11 13 6 7 1005.6 1005.6 1.2
19/05:30pm 24.6 27.6 21.9 85 1.8 NNE 9 11 5 6 1005.6 1005.6 1.2
19/05:00pm 24.5 27.2 21.4 83 2.1 N 9 13 5 7 1005.6 1005.6 0.8
19/04:30pm 25.0 27.1 20.9 78 2.7 NNW 11 15 6 8 1005.7 1005.7 0.6
19/04:00pm 25.4 26.6 20.0 72 3.5 NW 13 20 7 11 1005.5 1005.5 0.6
19/03:30pm 29.5 31.2 18.6 52 7.0 W 7 13 4 7 1005.2 1005.2 0.0
19/03:00pm 30.2 31.9 20.2 55 6.6 NW 11 15 6 8 1005.6 1005.6 0.0
19/02:30pm 29.5 30.2 18.9 53 6.9 WNW 13 19 7 10 1006.0 1006.0 0.0
19/02:00pm 29.7 30.9 20.0 56 6.4 NNW 13 17 7 9 1006.2 1006.2 0.0
19/01:30pm 28.7 29.0 19.6 58 5.9 WNW 17 24 9 13 1006.6 1006.6 0.0
19/01:00pm 29.6 30.9 19.3 54 6.7 WNW 11 17 6 9 1006.6 1006.6 0.0
19/12:30pm 29.4 30.6 20.0 57 6.2 NW 13 17 7 9 1006.1 1006.1 0.0
19/12:00pm 28.8 29.8 20.3 60 5.6 NNW 15 19 8 10 1006.4 1006.4 0.0
19/11:30am 27.9 29.1 20.7 65 4.8 NNW 15 19 8 10 1006.4 1006.4 0.0
19/11:00am 27.1 28.1 20.2 66 4.5 NNW 15 17 8 9 1006.7 1006.7 0.0
19/10:30am 25.6 28.2 20.4 73 3.4 N 7 13 4 7 1006.7 1006.7 0.0
19/10:00am 26.1 29.6 20.4 71 3.7 NNE 2 9 1 5 1007.0 1007.0 0.0
19/09:30am 24.1 26.4 19.8 77 2.8 N 7 11 4 6 1007.2 1007.2 0.0
19/09:00am 23.5 25.3 19.6 79 2.5 N 9 13 5 7 1007.2 1007.2 0.2
19/08:30am 23.1 24.6 19.7 81 2.2 N 11 13 6 7 1007.2 1007.2 0.2
19/08:00am 22.7 24.5 19.5 82 2.0 NNW 9 11 5 6 1006.8 1006.8 0.2
19/07:30am 22.7 23.6 19.3 81 2.2 N 13 17 7 9 1006.9 1006.9 0.2
19/07:00am 22.5 23.6 18.9 80 2.3 N 11 13 6 7 1006.2 1006.2 0.2
19/06:30am 22.6 22.5 18.8 79 2.4 N 17 22 9 12 1006.5 1006.5 0.2
19/06:00am 23.0 23.1 18.3 75 3.0 N 15 17 8 9 1006.3 1006.3 0.2
19/05:30am 23.5 22.8 18.2 72 3.3 NNW 19 22 10 12 1006.7 1006.7 0.2
19/05:00am 24.0 23.2 18.0 69 3.8 NNW 19 24 10 13 1006.9 1006.9 0.2
19/04:30am 24.1 23.0 17.8 68 3.9 NNW 20 28 11 15 1007.2 1007.2 0.2
19/04:00am 23.9 22.7 18.5 72 3.4 NNW 22 32 12 17 1007.3 1007.3 0.2
19/03:30am 23.6 21.6 19.1 76 2.9 NNW 28 41 15 22 1007.7 1007.7 0.2
19/03:00am 26.3 24.6 18.9 63 4.7 NNW 26 48 14 26 1007.8 1007.8 0.2
19/02:59am 26.3 24.9 18.9 63 4.7 NNW 24 48 13 26 1007.8 1007.8 0.2
19/02:30am 25.9 25.6 19.1 66 4.4 N 19 24 10 13 1007.7 1007.7 0.2
19/02:00am 24.4 24.8 19.0 72 3.4 NNW 15 17 8 9 1007.5 1007.5 0.2
19/01:30am 25.1 25.8 18.8 68 4.0 N 13 17 7 9 1007.8 1007.8 0.2
19/01:00am 25.1 25.3 18.5 67 4.2 N 15 17 8 9 1008.3 1008.3 0.2
19/12:30am 25.5 25.2 18.2 64 4.6 NNW 17 19 9 10 1008.4 1008.4 0.2
19/12:00am 26.4 25.7 18.3 61 5.2 N 19 24 10 13 1008.0 1008.0 0.2
 
Date/Time
EDT
Temp
°C
App
Temp
°C
Dew
Point
°C
Rel
Hum
%
Delta-T
°C
Wind Press
QNH
hPa
Press
MSL
hPa
Rain since
9am
mm
Dir  Spd
km/h
Gust
km/h
Spd
kts
Gust
kts
18/11:30pm 25.8 26.4 19.4 67 4.1 W 15 20 8 11 1008.3 1008.3 0.2
18/11:00pm 25.0 25.7 19.6 72 3.5 NE 15 20 8 11 1006.7 1006.7 0.2
18/10:30pm 23.9 25.2 19.2 75 3.0 N 11 15 6 8 1006.5 1006.5 0.2
18/10:00pm 25.3 25.9 19.4 70 3.8 NNE 15 20 8 11 1006.1 1006.1 0.2
18/09:30pm 25.7 25.3 19.3 67 4.1 NE 20 28 11 15 1005.6 1005.6 0.2
18/09:00pm 26.0 25.0 18.9 65 4.6 NE 22 30 12 16 1005.5 1005.5 0.2
18/08:30pm 26.6 26.1 19.0 63 4.9 NE 20 28 11 15 1005.7 1005.7 0.2
18/08:00pm 27.0 26.0 18.8 60 5.3 NE 22 30 12 16 1005.1 1005.1 0.2
18/07:30pm 27.9 26.3 19.1 58 5.7 NE 26 39 14 21 1004.5 1004.5 0.2
18/07:00pm 28.5 26.5 19.2 57 6.0 NE 28 41 15 22 1004.2 1004.2 0.2
18/06:30pm 29.7 26.9 19.1 53 6.9 NE 32 44 17 24 1004.2 1004.2 0.2
18/06:00pm 30.6 27.9 19.6 51 7.2 NE 33 46 18 25 1004.5 1004.5 0.2
18/05:30pm 31.0 28.6 20.0 52 7.3 ENE 32 44 17 24 1004.9 1004.9 0.2
18/05:00pm 31.8 30.4 20.4 51 7.6 ENE 28 39 15 21 1005.3 1005.3 0.2
18/04:30pm 32.1 31.0 21.0 52 7.4 ENE 28 37 15 20 1005.5 1005.5 0.2
18/04:00pm 32.3 31.8 21.5 53 7.3 ENE 26 37 14 20 1005.8 1005.8 0.2
18/03:30pm 33.1 33.1 21.6 51 7.8 NE 24 32 13 17 1006.0 1006.0 0.2
18/03:00pm 33.3 33.8 21.1 48 8.2 NE 20 30 11 16 1006.3 1006.3 0.2
18/02:30pm 34.0 35.2 20.0 43 9.3 N 13 22 7 12 1006.8 1006.8 0.2
18/02:00pm 33.7 34.4 20.5 46 8.8 NNW 17 26 9 14 1007.2 1007.2 0.2
18/01:30pm 33.3 33.6 20.5 47 8.6 NNW 19 26 10 14 1007.7 1007.7 0.2
18/01:00pm 33.0 32.5 19.1 43 9.1 N 20 28 11 15 1008.1 1008.1 0.2
18/12:30pm 32.4 32.0 18.9 44 8.8 N 19 30 10 16 1008.6 1008.6 0.2
18/12:00pm 32.1 33.5 20.4 50 7.8 N 13 22 7 12 1009.2 1009.2 0.2
18/11:30am 30.9 32.0 19.6 51 7.4 NNW 13 19 7 10 1009.6 1009.6 0.2
18/11:00am 29.9 31.2 20.2 56 6.4 N 13 20 7 11 1009.9 1009.9 0.2
18/10:30am 28.7 29.9 19.9 59 5.8 NNE 13 19 7 10 1010.5 1010.5 0.2
18/10:00am 28.0 29.4 20.3 63 5.1 N 13 17 7 9 1010.8 1010.8 0.2
18/09:30am 27.0 28.7 20.1 66 4.5 N 11 15 6 8 1011.0 1011.0 0.0
18/09:00am 25.8 27.7 20.6 73 3.4 N 11 15 6 8 1011.1 1011.1 0.2
18/08:30am 24.1 26.2 20.2 79 2.5 NNW 9 13 5 7 1011.0 1011.0 0.2
18/08:00am 22.3 24.9 20.0 87 1.5 N 6 9 3 5 1010.9 1010.9 0.2
18/07:30am 20.5 22.3 19.5 94 0.6 NNW 9 13 5 7 1010.7 1010.7 0.2
18/07:00am 20.4 22.0 19.2 93 0.8 N 9 11 5 6 1010.4 1010.4 0.2
18/06:30am 20.5 22.1 19.2 92 0.8 N 9 11 5 6 1010.1 1010.1 0.2
18/06:00am 20.8 23.8 19.3 91 0.9 NE 2 6 1 3 1009.8 1009.8 0.2
18/05:30am 20.9 23.6 19.4 91 1.0 W 4 7 2 4 1010.1 1010.1 0.2
18/05:00am 20.9 23.0 19.4 91 1.0 NNW 7 11 4 6 1010.1 1010.1 0.2
18/04:30am 21.2 22.6 19.5 90 1.1 N 11 15 6 8 1010.1 1010.1 0.2
18/04:00am 21.1 22.5 19.6 91 1.0 N 11 17 6 9 1010.5 1010.5 0.2
18/03:30am 21.6 22.8 19.9 90 1.1 NE 13 15 7 8 1011.4 1011.4 0.2
18/03:00am 21.5 24.7 19.8 90 1.1 NE 2 11 1 6 1013.0 1013.0 0.2
18/02:30am 21.9 25.4 19.5 86 1.5 CALM 0 0 0 0 1013.9 1013.9 0.2
18/02:00am 22.0 22.7 19.7 87 1.5 SSW 15 22 8 12 1014.4 1014.4 0.2
18/01:30am 21.8 22.8 19.4 86 1.5 SSW 13 19 7 10 1014.8 1014.8 0.2
18/01:00am 22.2 20.9 19.0 82 2.0 SSW 24 32 13 17 1015.2 1015.2 0.2
18/12:30am 22.6 22.8 18.6 78 2.5 SW 15 19 8 10 1013.9 1013.9 0.0
18/12:00am 23.5 24.8 18.4 73 3.2 NNE 9 13 5 7 1012.4 1012.4 0.0
 
Date/Time
EDT
Temp
°C
App
Temp
°C
Dew
Point
°C
Rel
Hum
%
Delta-T
°C
Wind Press
QNH
hPa
Press
MSL
hPa
Rain since
9am
mm
Dir  Spd
km/h
Gust
km/h
Spd
kts
Gust
kts
17/11:30pm 23.6 24.5 18.3 72 3.3 NNE 11 17 6 9 1012.4 1012.4 0.0
17/11:00pm 23.5 23.7 17.7 70 3.6 NE 13 17 7 9 1012.1 1012.1 0.0
17/10:30pm 23.9 23.4 17.9 69 3.8 NE 17 20 9 11 1011.9 1011.9 0.0
17/10:00pm 24.2 24.0 18.4 70 3.7 NE 17 26 9 14 1011.6 1011.6 0.0
17/09:30pm 24.4 23.9 18.6 70 3.7 NE 19 24 10 13 1011.2 1011.2 0.0
17/09:00pm 24.8 23.5 19.0 70 3.7 NE 24 33 13 18 1010.9 1010.9 0.0
17/08:30pm 25.2 23.9 19.1 69 3.9 NE 24 39 13 21 1010.7 1010.7 0.0
17/08:00pm 25.4 24.2 19.3 69 3.9 NE 24 35 13 19 1010.3 1010.3 0.0
17/07:30pm 25.9 24.0 19.3 67 4.2 NE 28 37 15 20 1009.9 1009.9 0.0
17/07:00pm 26.6 24.6 19.2 64 4.8 NE 28 43 15 23 1009.8 1009.8 0.0
17/06:30pm 27.5 25.2 19.3 61 5.3 ENE 30 44 16 24 1009.8 1009.8 0.0
17/06:00pm 28.5 26.8 19.7 59 5.7 ENE 28 41 15 22 1010.1 1010.1 0.0
17/05:30pm 29.1 26.8 19.4 55 6.3 ENE 30 43 16 23 1010.0 1010.0 0.0
17/05:00pm 29.9 28.3 19.3 53 6.9 NE 26 37 14 20 1010.1 1010.1 0.0
17/04:30pm 30.2 28.8 19.6 53 6.9 NE 26 39 14 21 1010.1 1010.1 0.0
17/04:00pm 31.3 30.7 20.6 53 7.1 ENE 24 37 13 20 1010.3 1010.3 0.0
17/03:30pm 31.0 30.2 20.0 52 7.3 ENE 24 32 13 17 1010.8 1010.8 0.0
17/03:00pm 31.5 31.2 20.4 51 7.4 ENE 22 33 12 18 1011.1 1011.1 0.0
17/02:30pm 32.0 32.5 21.2 52 7.3 ENE 20 30 11 16 1011.6 1011.6 0.0
17/02:00pm 32.3 33.0 18.8 44 8.8 NNE 13 20 7 11 1012.1 1012.1 0.0
17/01:30pm 31.7 33.1 18.7 46 8.4 NNW 9 20 5 11 1012.5 1012.5 0.0
17/01:00pm 31.0 32.5 18.0 45 8.3 ESE 7 15 4 8 1013.0 1013.0 0.0
17/12:30pm 30.2 31.1 17.6 46 8.0 NNE 9 17 5 9 1013.6 1013.6 0.0
17/12:00pm 29.9 31.4 18.0 48 7.6 NW 7 13 4 7 1014.1 1014.1 0.0
17/11:30am 29.0 30.5 18.1 51 7.0 N 7 17 4 9 1014.5 1014.5 0.0
17/11:00am 27.8 28.7 17.6 53 6.4 NNE 9 15 5 8 1015.0 1015.0 0.0
17/10:30am 27.1 28.3 17.3 55 6.1 N 7 15 4 8 1015.2 1015.2 0.0
17/10:00am 26.6 28.7 19.0 63 4.9 N 6 13 3 7 1015.4 1015.4 0.0
17/09:30am 25.3 26.8 19.0 68 4.0 N 9 13 5 7 1015.5 1015.5 0.0
17/09:00am 23.9 26.2 19.4 76 2.9 N 6 9 3 5 1015.6 1015.6 0.0
17/08:30am 21.9 23.9 19.1 84 1.8 NNW 7 9 4 5 1015.8 1015.8 0.0
17/08:00am 20.1 21.6 18.8 92 0.8 N 9 13 5 7 1015.6 1015.6 0.0
17/07:30am 19.2 20.4 18.2 94 0.6 N 9 13 5 7 1015.4 1015.4 0.0
17/07:00am 18.5 19.6 17.9 96 0.4 N 9 11 5 6 1015.2 1015.2 0.0
17/06:30am 17.9 18.3 17.3 96 0.4 N 11 13 6 7 1015.0 1015.0 0.0
17/06:00am 17.8 18.1 17.0 95 0.5 N 11 13 6 7 1014.8 1014.8 0.0

Other Formats:

Comma delimited format used in spreadsheet applications
http://www.bom.gov.au/fwo/IDN60801/IDN60801.94572.axf

JavaScript Object Notation format (JSON) in row-major order
http://www.bom.gov.au/fwo/IDN60801/IDN60801.94572.json